Miguel Oliver — ECLX — position and weather

sailwx.info

Track history (hours):
 
Tides and Currents Weather Stations Pressure Air Temp Water Temp Dewpoint Dewpoint Depression Visibility Wind Speed Wind Dir Waves Ship Positions

Oceanographic research ship Miguel Oliver (Spain)

Ship's website: http://www.mapa.es/es/pesca/pags/miguel_web/index.htm

Last reported at 2018-May-19 05:42 UTC. Time now 2018-May-20 13:58 UTC.
Position N 38°00' W 000°20'.

Length 70 m; draft 4.8 m.

Type: Other ship. MMSI: 225322000.

Date/timePositionNaut miles runAvg speedWind from/ knotsBaromVisibWave heightAir tempDewpointWater temp
2018-May-19 05:42N 38°00' W 000°20'0 1.3
2018-May-19 05:26N 37°60' W 000°20'3 1.6
2018-May-19 03:20N 38°01' W 000°24'4 3.4
2018-May-19 02:08N 37°60' W 000°29'1 3.0
2018-May-19 01:58N 37°59' W 000°30'1 2.6
2018-May-19 01:30N 37°59' W 000°31'1 1.0
2018-May-19 01:00N 37°59' W 000°32'0 0.9
2018-May-19 00:30N 37°59' W 000°31'1 1.5
2018-May-19 00:00N 37°59' W 000°32'0 0.5
2018-May-18 23:30N 37°59' W 000°32'0 0.5
2018-May-18 23:00N 37°59' W 000°32'0 0.6
2018-May-18 22:30N 37°59' W 000°31'1 0.6
2018-May-18 21:36N 37°59' W 000°31'0 0.5
2018-May-18 21:30N 37°59' W 000°31'0 0.4
2018-May-18 21:00N 37°59' W 000°30'0 0.4
2018-May-18 20:30N 37°59' W 000°30'0 0.4
2018-May-18 20:00N 37°59' W 000°30'0 0.4
2018-May-18 19:28N 37°59' W 000°30'0 0.3
2018-May-18 19:00N 37°59' W 000°29'0 0.4
2018-May-18 18:30N 37°59' W 000°29'0 0.4
2018-May-18 18:00N 37°59' W 000°29'0 0.4
2018-May-18 17:30N 37°59' W 000°29'0 0.5
2018-May-18 17:00N 37°59' W 000°28'0 0.9
2018-May-18 16:30N 37°59' W 000°28'0 0.8
2018-May-18 16:00N 37°59' W 000°27'2 4.2
2018-May-18 15:26N 37°60' W 000°24'3 5.5
2018-May-18 14:55N 37°59' W 000°21'2 4.6
2018-May-18 14:30N 37°58' W 000°20'2 3.8
2018-May-18 14:00N 37°56' W 000°19'4 2.2
2018-May-18 12:03N 37°53' W 000°23'0 2.7
2018-May-18 12:00N 37°53' W 000°23'2 2.6
2018-May-18 11:22N 37°51' W 000°24'1 3.9
2018-May-18 11:00N 37°50' W 000°24'1 2.2
2018-May-18 10:22N 37°51' W 000°26'2 4.1
2018-May-18 10:00N 37°52' W 000°27'2 4.5
2018-May-18 09:30N 37°53' W 000°29'1 2.5
2018-May-18 09:00N 37°55' W 000°29'2 3.4
2018-May-18 08:30N 37°56' W 000°28'3 5.1
2018-May-18 08:00N 37°58' W 000°30'1 2.7
2018-May-18 07:30N 37°57' W 000°31'2 4.1
2018-May-18 07:00N 37°57' W 000°33'1 2.2
2018-May-18 06:30N 37°56' W 000°34'2 3.3
2018-May-18 06:00N 37°55' W 000°35'1 2.3
2018-May-18 05:30N 37°53' W 000°35'3 5.1
2018-May-18 05:00N 37°56' W 000°35'2 3.4
2018-May-18 04:30N 37°58' W 000°34'0 0.4
2018-May-18 03:58N 37°57' W 000°34'1 2.7
2018-May-18 03:30N 37°56' W 000°34'1 2.8
2018-May-18 03:00N 37°55' W 000°34'1 2.2
2018-May-18 02:30N 37°54' W 000°33'1 2.2
2018-May-18 01:59N 37°54' W 000°35'1 1.1
2018-May-18 01:30N 37°54' W 000°35'0 0.6
2018-May-18 01:00N 37°55' W 000°35'1 3.0
2018-May-18 00:30N 37°54' W 000°33'1 2.7
2018-May-18 00:00N 37°54' W 000°32'1 2.6
2018-May-17 23:30N 37°53' W 000°30'1 2.5
2018-May-17 23:00N 37°53' W 000°29'1 2.1
2018-May-17 22:30N 37°53' W 000°30'2 2.2
2018-May-17 21:35N 37°54' W 000°33'0 2.2
2018-May-17 21:30N 37°54' W 000°33'1 2.2
2018-May-17 21:00N 37°54' W 000°34'0 0.6
2018-May-17 20:30N 37°54' W 000°34'2 3.5
2018-May-17 20:00N 37°54' W 000°32'2 3.9
2018-May-17 19:30N 37°54' W 000°30'3 5.9
2018-May-17 19:00N 37°53' W 000°26'3 4.9
2018-May-17 18:29N 37°53' W 000°23'12 1.7
2018-May-17 11:24N 37°42' W 000°15'2 3.2
2018-May-17 10:45N 37°40' W 000°16'1 2.6
2018-May-17 10:15N 37°40' W 000°18'2 4.3
2018-May-17 09:41N 37°40' W 000°21'0 1.8
2018-May-17 09:29N 37°41' W 000°21'1 2.3
2018-May-17 09:00N 37°42' W 000°20'1 3.0
2018-May-17 08:30N 37°43' W 000°19'8 1.4
2018-May-17 02:39N 37°49' W 000°25'0 3.4
2018-May-17 02:30N 37°49' W 000°26'2 3.3
2018-May-17 02:00N 37°49' W 000°28'2 3.3
2018-May-17 01:30N 37°50' W 000°30'2 3.3
2018-May-17 01:00N 37°50' W 000°32'2 2.9
2018-May-17 00:29N 37°51' W 000°34'0 0.7
2018-May-17 00:00N 37°51' W 000°34'0 0.8
2018-May-16 23:30N 37°51' W 000°33'0 0.7
2018-May-16 23:00N 37°51' W 000°33'0 0.7
2018-May-16 22:30N 37°51' W 000°32'2 1.8
2018-May-16 21:35N 37°52' W 000°33'0 1.7
2018-May-16 21:30N 37°53' W 000°33'1 1.8
2018-May-16 21:00N 37°53' W 000°33'1 1.8
2018-May-16 20:30N 37°54' W 000°34'1 1.8
2018-May-16 20:00N 37°55' W 000°34'1 1.7
2018-May-16 19:30N 37°56' W 000°34'1 1.8
2018-May-16 19:00N 37°57' W 000°35'1 1.3
2018-May-16 18:30N 37°57' W 000°35'1 1.6
2018-May-16 18:00N 37°57' W 000°36'1 1.7
2018-May-16 17:30N 37°56' W 000°37'1 1.8
2018-May-16 17:00N 37°55' W 000°37'1 2.3
2018-May-16 16:30N 37°54' W 000°37'2 3.1
2018-May-16 16:00N 37°53' W 000°36'2 3.1
2018-May-16 15:30N 37°52' W 000°35'2 3.3
2018-May-16 15:00N 37°50' W 000°33'2 3.3
2018-May-16 14:30N 37°49' W 000°33'2 3.5
2018-May-16 14:00N 37°47' W 000°32'2 3.1
2018-May-16 13:30N 37°46' W 000°31'2 3.1
2018-May-16 13:00N 37°44' W 000°30'2 3.0
2018-May-16 12:30N 37°43' W 000°32'2 3.0
2018-May-16 12:00N 37°44' W 000°34'1 2.2
2018-May-16 11:30N 37°43' W 000°34'2 3.7
2018-May-16 11:00N 37°42' W 000°36'0 0.2
2018-May-16 10:30N 37°42' W 000°36'0 0.3
2018-May-16 10:00N 37°42' W 000°36'1 1.2
2018-May-16 09:30N 37°42' W 000°37'0 0.9
2018-May-16 09:00N 37°42' W 000°36'1 1.0
2018-May-16 08:30N 37°41' W 000°37'2 3.3
2018-May-16 08:00N 37°43' W 000°36'2 3.2
2018-May-16 07:30N 37°45' W 000°36'2 3.7
2018-May-16 07:00N 37°46' W 000°37'1 2.6
2018-May-16 06:29N 37°48' W 000°37'2 3.3
2018-May-16 06:00N 37°49' W 000°38'1 1.2
2018-May-16 05:30N 37°50' W 000°39'3 5.7
2018-May-16 05:00N 37°47' W 000°37'3 6.0
2018-May-16 04:30N 37°44' W 000°36'2 4.1
2018-May-16 04:00N 37°44' W 000°33'3 5.4
2018-May-16 03:29N 37°46' W 000°31'3 5.1
2018-May-16 02:57N 37°48' W 000°30'1 1.6
2018-May-16 02:29N 37°49' W 000°30'1 1.1
2018-May-16 01:54N 37°49' W 000°31'1 1.9
2018-May-16 01:30N 37°49' W 000°31'1 2.4
2018-May-16 00:59N 37°50' W 000°32'0 0.7
2018-May-16 00:30N 37°50' W 000°33'0 0.8
2018-May-16 00:00N 37°50' W 000°33'0 0.5
2018-May-15 23:30N 37°50' W 000°33'0 0.4
2018-May-15 23:00N 37°50' W 000°33'1 1.1
2018-May-15 22:30N 37°49' W 000°33'2 2.3
2018-May-15 21:29N 37°49' W 000°36'4 7.8
2018-May-15 21:00N 37°52' W 000°38'3 5.2
2018-May-15 20:30N 37°54' W 000°39'0 0.4
2018-May-15 20:00N 37°54' W 000°39'0 0.4
2018-May-15 19:30N 37°54' W 000°39'1 1.4
2018-May-15 19:00N 37°54' W 000°39'2 3.4
2018-May-15 18:29N 37°52' W 000°39'2 3.4
2018-May-15 18:00N 37°50' W 000°39'2 3.5
2018-May-15 17:30N 37°49' W 000°39'2 3.4
2018-May-15 17:00N 37°47' W 000°39'2 3.3
2018-May-15 16:30N 37°45' W 000°39'1 1.7
2018-May-15 16:00N 37°44' W 000°39'0 0.6
2018-May-15 15:30N 37°45' W 000°38'0 0.5
2018-May-15 15:00N 37°45' W 000°38'0 0.4
2018-May-15 14:29N 37°45' W 000°38'0 0.5
2018-May-15 14:00N 37°44' W 000°38'0 0.3
2018-May-15 13:30N 37°44' W 000°38'1 2.3
2018-May-15 13:00N 37°43' W 000°39'2 3.8
2018-May-15 12:30N 37°42' W 000°39'3 6.1
2018-May-15 12:00N 37°39' W 000°38'1 2.7
2018-May-15 11:30N 37°38' W 000°39'2 3.2
2018-May-15 11:00N 37°37' W 000°41'0 0.8
2018-May-15 10:30N 37°36' W 000°41'4 7.6
2018-May-15 10:00N 37°33' W 000°44'5 9.9
2018-May-15 09:30N 37°31' W 000°50'8 0.3
2018-May-14 05:57N 37°33' W 000°60'3 6.4
2018-May-14 05:28N 37°30' W 000°59'1 3.2
2018-May-14 05:00N 37°30' W 001°01'26 1.9
2018-May-13 15:20N 37°23' W 001°31'1 3.9
2018-May-13 14:59N 37°22' W 001°33'1 2.6
2018-May-13 14:27N 37°21' W 001°35'1 2.1
2018-May-13 13:52N 37°21' W 001°36'1 2.5
2018-May-13 13:20N 37°21' W 001°34'1 3.0
2018-May-13 13:00N 37°22' W 001°33'  
Track history (hours):
 
Tides and Currents Weather Stations Pressure Air Temp Water Temp Dewpoint Dewpoint Depression Visibility Wind Speed Wind Dir Waves Ship Positions

Oceanographic research ship Miguel Oliver (Spain)

Ship's website: http://www.mapa.es/es/pesca/pags/miguel_web/index.htm

Last reported at 2018-May-19 05:42 UTC. Time now 2018-May-20 13:58 UTC.
Position N 38°00' W 000°20'.

Length 70 m; draft 4.8 m.

Type: Other ship. MMSI: 225322000.

Date/timePositionNaut miles runAvg speedWind from/ knotsBaromVisibWave heightAir tempDewpointWater temp
2018-May-19 05:42N 38°00' W 000°20'0 1.3
2018-May-19 05:26N 37°60' W 000°20'3 1.6
2018-May-19 03:20N 38°01' W 000°24'4 3.4
2018-May-19 02:08N 37°60' W 000°29'1 3.0
2018-May-19 01:58N 37°59' W 000°30'1 2.6
2018-May-19 01:30N 37°59' W 000°31'1 1.0
2018-May-19 01:00N 37°59' W 000°32'0 0.9
2018-May-19 00:30N 37°59' W 000°31'1 1.5
2018-May-19 00:00N 37°59' W 000°32'0 0.5
2018-May-18 23:30N 37°59' W 000°32'0 0.5
2018-May-18 23:00N 37°59' W 000°32'0 0.6
2018-May-18 22:30N 37°59' W 000°31'1 0.6
2018-May-18 21:36N 37°59' W 000°31'0 0.5
2018-May-18 21:30N 37°59' W 000°31'0 0.4
2018-May-18 21:00N 37°59' W 000°30'0 0.4
2018-May-18 20:30N 37°59' W 000°30'0 0.4
2018-May-18 20:00N 37°59' W 000°30'0 0.4
2018-May-18 19:28N 37°59' W 000°30'0 0.3
2018-May-18 19:00N 37°59' W 000°29'0 0.4
2018-May-18 18:30N 37°59' W 000°29'0 0.4
2018-May-18 18:00N 37°59' W 000°29'0 0.4
2018-May-18 17:30N 37°59' W 000°29'0 0.5
2018-May-18 17:00N 37°59' W 000°28'0 0.9
2018-May-18 16:30N 37°59' W 000°28'0 0.8
2018-May-18 16:00N 37°59' W 000°27'2 4.2
2018-May-18 15:26N 37°60' W 000°24'3 5.5
2018-May-18 14:55N 37°59' W 000°21'2 4.6
2018-May-18 14:30N 37°58' W 000°20'2 3.8
2018-May-18 14:00N 37°56' W 000°19'4 2.2
2018-May-18 12:03N 37°53' W 000°23'0 2.7
2018-May-18 12:00N 37°53' W 000°23'2 2.6
2018-May-18 11:22N 37°51' W 000°24'1 3.9
2018-May-18 11:00N 37°50' W 000°24'1 2.2
2018-May-18 10:22N 37°51' W 000°26'2 4.1
2018-May-18 10:00N 37°52' W 000°27'2 4.5
2018-May-18 09:30N 37°53' W 000°29'1 2.5
2018-May-18 09:00N 37°55' W 000°29'2 3.4
2018-May-18 08:30N 37°56' W 000°28'3 5.1
2018-May-18 08:00N 37°58' W 000°30'1 2.7
2018-May-18 07:30N 37°57' W 000°31'2 4.1
2018-May-18 07:00N 37°57' W 000°33'1 2.2
2018-May-18 06:30N 37°56' W 000°34'2 3.3
2018-May-18 06:00N 37°55' W 000°35'1 2.3
2018-May-18 05:30N 37°53' W 000°35'3 5.1
2018-May-18 05:00N 37°56' W 000°35'2 3.4
2018-May-18 04:30N 37°58' W 000°34'0 0.4
2018-May-18 03:58N 37°57' W 000°34'1 2.7
2018-May-18 03:30N 37°56' W 000°34'1 2.8
2018-May-18 03:00N 37°55' W 000°34'1 2.2
2018-May-18 02:30N 37°54' W 000°33'1 2.2
2018-May-18 01:59N 37°54' W 000°35'1 1.1
2018-May-18 01:30N 37°54' W 000°35'0 0.6
2018-May-18 01:00N 37°55' W 000°35'1 3.0
2018-May-18 00:30N 37°54' W 000°33'1 2.7
2018-May-18 00:00N 37°54' W 000°32'1 2.6
2018-May-17 23:30N 37°53' W 000°30'1 2.5
2018-May-17 23:00N 37°53' W 000°29'1 2.1
2018-May-17 22:30N 37°53' W 000°30'2 2.2
2018-May-17 21:35N 37°54' W 000°33'0 2.2
2018-May-17 21:30N 37°54' W 000°33'1 2.2
2018-May-17 21:00N 37°54' W 000°34'0 0.6
2018-May-17 20:30N 37°54' W 000°34'2 3.5
2018-May-17 20:00N 37°54' W 000°32'2 3.9
2018-May-17 19:30N 37°54' W 000°30'3 5.9
2018-May-17 19:00N 37°53' W 000°26'3 4.9
2018-May-17 18:29N 37°53' W 000°23'12 1.7
2018-May-17 11:24N 37°42' W 000°15'2 3.2
2018-May-17 10:45N 37°40' W 000°16'1 2.6
2018-May-17 10:15N 37°40' W 000°18'2 4.3
2018-May-17 09:41N 37°40' W 000°21'0 1.8
2018-May-17 09:29N 37°41' W 000°21'1 2.3
2018-May-17 09:00N 37°42' W 000°20'1 3.0
2018-May-17 08:30N 37°43' W 000°19'8 1.4
2018-May-17 02:39N 37°49' W 000°25'0 3.4
2018-May-17 02:30N 37°49' W 000°26'2 3.3
2018-May-17 02:00N 37°49' W 000°28'2 3.3
2018-May-17 01:30N 37°50' W 000°30'2 3.3
2018-May-17 01:00N 37°50' W 000°32'2 2.9
2018-May-17 00:29N 37°51' W 000°34'0 0.7
2018-May-17 00:00N 37°51' W 000°34'0 0.8
2018-May-16 23:30N 37°51' W 000°33'0 0.7
2018-May-16 23:00N 37°51' W 000°33'0 0.7
2018-May-16 22:30N 37°51' W 000°32'2 1.8
2018-May-16 21:35N 37°52' W 000°33'0 1.7
2018-May-16 21:30N 37°53' W 000°33'1 1.8
2018-May-16 21:00N 37°53' W 000°33'1 1.8
2018-May-16 20:30N 37°54' W 000°34'1 1.8
2018-May-16 20:00N 37°55' W 000°34'1 1.7
2018-May-16 19:30N 37°56' W 000°34'1 1.8
2018-May-16 19:00N 37°57' W 000°35'1 1.3
2018-May-16 18:30N 37°57' W 000°35'1 1.6
2018-May-16 18:00N 37°57' W 000°36'1 1.7
2018-May-16 17:30N 37°56' W 000°37'1 1.8
2018-May-16 17:00N 37°55' W 000°37'1 2.3
2018-May-16 16:30N 37°54' W 000°37'2 3.1
2018-May-16 16:00N 37°53' W 000°36'2 3.1
2018-May-16 15:30N 37°52' W 000°35'2 3.3
2018-May-16 15:00N 37°50' W 000°33'2 3.3
2018-May-16 14:30N 37°49' W 000°33'2 3.5
2018-May-16 14:00N 37°47' W 000°32'2 3.1
2018-May-16 13:30N 37°46' W 000°31'2 3.1
2018-May-16 13:00N 37°44' W 000°30'2 3.0
2018-May-16 12:30N 37°43' W 000°32'2 3.0
2018-May-16 12:00N 37°44' W 000°34'1 2.2
2018-May-16 11:30N 37°43' W 000°34'2 3.7
2018-May-16 11:00N 37°42' W 000°36'0 0.2
2018-May-16 10:30N 37°42' W 000°36'0 0.3
2018-May-16 10:00N 37°42' W 000°36'1 1.2
2018-May-16 09:30N 37°42' W 000°37'0 0.9
2018-May-16 09:00N 37°42' W 000°36'1 1.0
2018-May-16 08:30N 37°41' W 000°37'2 3.3
2018-May-16 08:00N 37°43' W 000°36'2 3.2
2018-May-16 07:30N 37°45' W 000°36'2 3.7
2018-May-16 07:00N 37°46' W 000°37'1 2.6
2018-May-16 06:29N 37°48' W 000°37'2 3.3
2018-May-16 06:00N 37°49' W 000°38'1 1.2
2018-May-16 05:30N 37°50' W 000°39'3 5.7
2018-May-16 05:00N 37°47' W 000°37'3 6.0
2018-May-16 04:30N 37°44' W 000°36'2 4.1
2018-May-16 04:00N 37°44' W 000°33'3 5.4
2018-May-16 03:29N 37°46' W 000°31'3 5.1
2018-May-16 02:57N 37°48' W 000°30'1 1.6
2018-May-16 02:29N 37°49' W 000°30'1 1.1
2018-May-16 01:54N 37°49' W 000°31'1 1.9
2018-May-16 01:30N 37°49' W 000°31'1 2.4
2018-May-16 00:59N 37°50' W 000°32'0 0.7
2018-May-16 00:30N 37°50' W 000°33'0 0.8
2018-May-16 00:00N 37°50' W 000°33'0 0.5
2018-May-15 23:30N 37°50' W 000°33'0 0.4
2018-May-15 23:00N 37°50' W 000°33'1 1.1
2018-May-15 22:30N 37°49' W 000°33'2 2.3
2018-May-15 21:29N 37°49' W 000°36'4 7.8
2018-May-15 21:00N 37°52' W 000°38'3 5.2
2018-May-15 20:30N 37°54' W 000°39'0 0.4
2018-May-15 20:00N 37°54' W 000°39'0 0.4
2018-May-15 19:30N 37°54' W 000°39'1 1.4
2018-May-15 19:00N 37°54' W 000°39'2 3.4
2018-May-15 18:29N 37°52' W 000°39'2 3.4
2018-May-15 18:00N 37°50' W 000°39'2 3.5
2018-May-15 17:30N 37°49' W 000°39'2 3.4
2018-May-15 17:00N 37°47' W 000°39'2 3.3
2018-May-15 16:30N 37°45' W 000°39'1 1.7
2018-May-15 16:00N 37°44' W 000°39'0 0.6
2018-May-15 15:30N 37°45' W 000°38'0 0.5
2018-May-15 15:00N 37°45' W 000°38'0 0.4
2018-May-15 14:29N 37°45' W 000°38'0 0.5
2018-May-15 14:00N 37°44' W 000°38'0 0.3
2018-May-15 13:30N 37°44' W 000°38'1 2.3
2018-May-15 13:00N 37°43' W 000°39'2 3.8
2018-May-15 12:30N 37°42' W 000°39'3 6.1
2018-May-15 12:00N 37°39' W 000°38'1 2.7
2018-May-15 11:30N 37°38' W 000°39'2 3.2
2018-May-15 11:00N 37°37' W 000°41'0 0.8
2018-May-15 10:30N 37°36' W 000°41'4 7.6
2018-May-15 10:00N 37°33' W 000°44'5 9.9
2018-May-15 09:30N 37°31' W 000°50'8 0.3
2018-May-14 05:57N 37°33' W 000°60'3 6.4
2018-May-14 05:28N 37°30' W 000°59'1 3.2
2018-May-14 05:00N 37°30' W 001°01'26 1.9
2018-May-13 15:20N 37°23' W 001°31'1 3.9
2018-May-13 14:59N 37°22' W 001°33'1 2.6
2018-May-13 14:27N 37°21' W 001°35'1 2.1
2018-May-13 13:52N 37°21' W 001°36'1 2.5
2018-May-13 13:20N 37°21' W 001°34'1 3.0
2018-May-13 13:00N 37°22' W 001°33'  

Dump ship's entire track history